sensor_id;sensor_type;location;lat;lon;timestamp;pressure;altitude;pressure_sealevel;temperature;humidity
43281;BME280;62175;49.416;8.690;2023-01-29T00:02:13;101831.31;;;5.93;39.48
43281;BME280;62175;49.416;8.690;2023-01-29T00:04:40;101837.96;;;5.23;39.81
43281;BME280;62175;49.416;8.690;2023-01-29T00:07:08;101836.45;;;5.71;39.66
43281;BME280;62175;49.416;8.690;2023-01-29T00:09:36;101827.97;;;5.91;39.65
43281;BME280;62175;49.416;8.690;2023-01-29T00:12:03;101828.58;;;5.79;40.05
43281;BME280;62175;49.416;8.690;2023-01-29T00:14:31;101834.75;;;5.52;39.33
43281;BME280;62175;49.416;8.690;2023-01-29T00:16:58;101840.00;;;5.41;39.60
43281;BME280;62175;49.416;8.690;2023-01-29T00:19:26;101836.09;;;6.07;40.53
43281;BME280;62175;49.416;8.690;2023-01-29T00:21:53;101830.47;;;5.91;40.28
43281;BME280;62175;49.416;8.690;2023-01-29T00:24:20;101827.64;;;5.80;39.43
43281;BME280;62175;49.416;8.690;2023-01-29T00:26:48;101825.58;;;5.55;40.24
43281;BME280;62175;49.416;8.690;2023-01-29T00:29:15;101820.98;;;5.78;39.57
43281;BME280;62175;49.416;8.690;2023-01-29T00:31:46;101818.69;;;5.42;39.09
43281;BME280;62175;49.416;8.690;2023-01-29T00:34:14;101819.03;;;5.65;39.74
43281;BME280;62175;49.416;8.690;2023-01-29T00:36:41;101825.26;;;5.58;39.04
43281;BME280;62175;49.416;8.690;2023-01-29T00:39:10;101824.32;;;5.69;39.78
43281;BME280;62175;49.416;8.690;2023-01-29T00:41:38;101826.85;;;5.54;39.84
43281;BME280;62175;49.416;8.690;2023-01-29T00:44:08;101830.11;;;5.97;39.47
43281;BME280;62175;49.416;8.690;2023-01-29T00:46:37;101834.44;;;5.44;38.92
43281;BME280;62175;49.416;8.690;2023-01-29T00:49:06;101829.71;;;5.84;39.17
43281;BME280;62175;49.416;8.690;2023-01-29T00:51:36;101829.37;;;5.50;39.20
43281;BME280;62175;49.416;8.690;2023-01-29T00:54:07;101826.29;;;5.65;39.68
43281;BME280;62175;49.416;8.690;2023-01-29T00:56:37;101826.05;;;5.94;39.07
43281;BME280;62175;49.416;8.690;2023-01-29T00:59:05;101830.83;;;6.08;39.40
43281;BME280;62175;49.416;8.690;2023-01-29T01:01:32;101831.27;;;5.65;38.97
43281;BME280;62175;49.416;8.690;2023-01-29T01:04:01;101836.54;;;5.99;39.33
43281;BME280;62175;49.416;8.690;2023-01-29T01:06:29;101840.07;;;5.85;39.01
43281;BME280;62175;49.416;8.690;2023-01-29T01:08:58;101839.68;;;6.07;38.99
43281;BME280;62175;49.416;8.690;2023-01-29T01:11:26;101840.91;;;6.20;39.64
43281;BME280;62175;49.416;8.690;2023-01-29T01:13:53;101841.29;;;5.74;39.09
43281;BME280;62175;49.416;8.690;2023-01-29T01:16:21;101851.94;;;5.59;38.82
43281;BME280;62175;49.416;8.690;2023-01-29T01:18:49;101854.44;;;5.35;39.34
43281;BME280;62175;49.416;8.690;2023-01-29T01:21:26;101850.41;;;5.51;38.99
43281;BME280;62175;49.416;8.690;2023-01-29T01:23:54;101847.54;;;5.29;38.98
43281;BME280;62175;49.416;8.690;2023-01-29T01:26:22;101840.02;;;6.07;39.63
43281;BME280;62175;49.416;8.690;2023-01-29T23:05:42;101392.57;;;4.90;44.52
43281;BME280;62175;49.416;8.690;2023-01-29T23:11:11;101382.04;;;5.35;44.05
43281;BME280;62175;49.416;8.690;2023-01-29T23:13:41;101371.55;;;4.91;44.90
43281;BME280;62175;49.416;8.690;2023-01-29T23:16:08;101370.10;;;5.16;44.73
43281;BME280;62175;49.416;8.690;2023-01-29T23:18:36;101368.25;;;5.02;44.49
43281;BME280;62175;49.416;8.690;2023-01-29T23:21:03;101367.64;;;5.00;44.45
43281;BME280;62175;49.416;8.690;2023-01-29T23:23:31;101357.62;;;5.59;44.23
43281;BME280;62175;49.416;8.690;2023-01-29T23:26:00;101348.14;;;5.18;45.74
43281;BME280;62175;49.416;8.690;2023-01-29T23:28:28;101347.99;;;4.94;44.11
43281;BME280;62175;49.416;8.690;2023-01-29T23:30:56;101356.11;;;5.18;44.24
43281;BME280;62175;49.416;8.690;2023-01-29T23:33:24;101357.78;;;5.28;44.11
43281;BME280;62175;49.416;8.690;2023-01-29T23:35:51;101355.39;;;4.97;44.05
43281;BME280;62175;49.416;8.690;2023-01-29T23:38:26;101359.22;;;5.31;44.69
43281;BME280;62175;49.416;8.690;2023-01-29T23:40:53;101341.78;;;5.27;43.91
43281;BME280;62175;49.416;8.690;2023-01-29T23:43:21;101335.54;;;5.34;44.02
43281;BME280;62175;49.416;8.690;2023-01-29T23:45:48;101325.00;;;5.09;44.09
43281;BME280;62175;49.416;8.690;2023-01-29T23:48:15;101312.40;;;4.79;45.05
43281;BME280;62175;49.416;8.690;2023-01-29T23:50:43;101307.45;;;5.02;45.86
43281;BME280;62175;49.416;8.690;2023-01-29T23:53:10;101311.32;;;4.98;44.20
43281;BME280;62175;49.416;8.690;2023-01-29T23:55:37;101315.97;;;5.06;45.33
43281;BME280;62175;49.416;8.690;2023-01-29T23:58:05;101312.27;;;5.09;44.07
